Time;durP1;ratioP1;P1;durP2;ratioP2;P2;SDS_P1;SDS_P2;PMS_P1;PMS_P2;Temp;Humidity;BMP_temperature;BMP_pressure;BME280_temperature;BME280_humidity;BME280_pressure;Samples;Min_cycle;Max_cycle;Signal;HPM_P1;HPM_P2
2021/04/01 00:00:32;;;;;;;3.7;1.2;;;;;;;9.35;65.35742;942.9815;;;;
2021/04/01 00:02:59;;;;;;;4.2;1.7;;;;;;;9.49;64.83105;943.0396;;;;
2021/04/01 00:05:25;;;;;;;5.3;1.5;;;;;;;9.38;65.05566;943.0522;;;;
2021/04/01 00:07:52;;;;;;;2.5;1.8;;;;;;;9.28;65.31348;943.008;;;;
2021/04/01 00:10:35;;;;;;;1.9;0.9;;;;;;;9.21;65.29004;942.944;;;;
2021/04/01 00:13:05;;;;;;;2.3;1;;;;;;;8.98;66.2793;942.9409;;;;
2021/04/01 00:15:41;;;;;;;2.6;1.4;;;;;;;9.06;65.88281;942.9614;;;;
2021/04/01 00:18:08;;;;;;;1.4;0.9;;;;;;;9.04;65.93652;942.8744;;;;
2021/04/01 00:20:42;;;;;;;5;2;;;;;;;9.14;65.62012;942.8972;;;;
2021/04/01 00:23:11;;;;;;;4.8;1.6;;;;;;;9.21;65.41504;942.9249;;;;
2021/04/01 00:25:39;;;;;;;0.8;0.8;;;;;;;9.25;65.05762;942.9158;;;;
2021/04/01 00:28:12;;;;;;;1.9;1.3;;;;;;;9.12;65.1084;942.9089;;;;
2021/04/01 00:30:49;;;;;;;4.5;1.1;;;;;;;9.07;65.06445;942.8734;;;;
2021/04/01 00:33:14;;;;;;;1;0.9;;;;;;;8.98;65.39258;942.9219;;;;
2021/04/01 00:35:42;;;;;;;1.5;1.1;;;;;;;9.05;65.18555;942.9626;;;;
2021/04/01 00:38:11;;;;;;;1.6;0.9;;;;;;;9.02;65.16992;942.8809;;;;
2021/04/01 00:40:36;;;;;;;1.7;0.9;;;;;;;8.88;65.40039;942.9419;;;;
2021/04/01 00:43:05;;;;;;;1.1;0.7;;;;;;;8.91;65.24609;942.8401;;;;
2021/04/01 00:45:30;;;;;;;1.2;0.7;;;;;;;8.8;65.42188;942.8786;;;;
2021/04/01 00:47:55;;;;;;;1.8;1.2;;;;;;;8.65;65.77344;942.8575;;;;
2021/04/01 00:50:22;;;;;;;3.6;1.6;;;;;;;8.39;66.58691;942.7516;;;;
2021/04/01 00:52:47;;;;;;;1.5;1;;;;;;;8.55;66.19043;942.8135;;;;
2021/04/01 00:55:14;;;;;;;4.2;0.9;;;;;;;8.67;66.12988;942.8047;;;;
2021/04/01 00:57:39;;;;;;;1.6;0.7;;;;;;;8.65;66.16016;942.7893;;;;
2021/04/01 01:00:10;;;;;;;1;0.6;;;;;;;8.16;68.10742;942.7761;;;;
2021/04/01 01:02:38;;;;;;;0.6;0.6;;;;;;;8.44;67.41211;942.7219;;;;
2021/04/01 01:05:03;;;;;;;4.8;1;;;;;;;8.57;66.56934;942.7006;;;;
2021/04/01 01:07:31;;;;;;;2;1;;;;;;;8.57;66.19336;942.7004;;;;
2021/04/01 01:09:56;;;;;;;1.7;1.2;;;;;;;8.33;67.1123;942.7283;;;;
2021/04/01 01:12:26;;;;;;;1.3;1;;;;;;;8.18;67.72461;942.7346;;;;
2021/04/01 01:14:58;;;;;;;3.9;1.2;;;;;;;8.16;67.74316;942.6911;;;;
2021/04/01 01:17:32;;;;;;;4.7;1.2;;;;;;;8.14;67.77441;942.716;;;;
2021/04/01 01:20:02;;;;;;;3.9;1.2;;;;;;;8.13;67.58008;942.6864;;;;
2021/04/01 01:22:30;;;;;;;1.2;0.9;;;;;;;8.03;68.08594;942.6656;;;;
2021/04/01 01:24:55;;;;;;;2.6;0.7;;;;;;;7.91;68.35156;942.6735;;;;
2021/04/01 01:27:23;;;;;;;8.4;1.7;;;;;;;7.75;68.94922;942.5911;;;;
2021/04/01 01:29:48;;;;;;;0.6;0.6;;;;;;;7.53;69.99023;942.5595;;;;
2021/04/01 01:32:14;;;;;;;3.2;1.1;;;;;;;7.31;70.93164;942.58;;;;
2021/04/01 01:34:40;;;;;;;1.5;1.1;;;;;;;7.6;69.91113;942.5787;;;;
2021/04/01 01:37:05;;;;;;;3.7;0.8;;;;;;;7.5;70.29199;942.4832;;;;
2021/04/01 01:39:32;;;;;;;1.1;0.8;;;;;;;7.28;71.26367;942.6108;;;;
2021/04/01 01:41:57;;;;;;;1.8;0.9;;;;;;;7.14;71.93359;942.5836;;;;
2021/04/01 01:44:26;;;;;;;2.9;1.3;;;;;;;7.39;71.46484;942.5243;;;;
2021/04/01 01:46:51;;;;;;;6.3;1.3;;;;;;;7.65;70.35156;942.5449;;;;
2021/04/01 01:49:16;;;;;;;1.5;0.9;;;;;;;7.86;69.58008;942.5181;;;;
2021/04/01 01:51:41;;;;;;;1.5;1.1;;;;;;;7.92;68.80566;942.5023;;;;
2021/04/01 01:54:07;;;;;;;2.2;1.4;;;;;;;7.89;68.8252;942.5111;;;;
2021/04/01 01:56:32;;;;;;;2;1.5;;;;;;;7.76;69.41504;942.4897;;;;
2021/04/01 01:58:58;;;;;;;2.5;1.7;;;;;;;7.76;69.15527;942.5256;;;;
2021/04/01 02:01:27;;;;;;;3.4;1.3;;;;;;;7.88;68.54004;942.4364;;;;
2021/04/01 02:03:52;;;;;;;2.7;1.1;;;;;;;7.85;68.59082;942.464;;;;
2021/04/01 02:06:20;;;;;;;1.5;1.1;;;;;;;7.75;68.99512;942.515;;;;
2021/04/01 02:08:42;;;;;;;2;1.4;;;;;;;7.7;68.98633;942.4669;;;;
2021/04/01 02:11:08;;;;;;;2.9;1.1;;;;;;;7.72;68.75195;942.3716;;;;
2021/04/01 02:13:33;;;;;;;2.8;1.1;;;;;;;7.64;68.4668;942.4138;;;;
2021/04/01 02:16:08;;;;;;;1.4;1.1;;;;;;;7.63;68.72559;942.4031;;;;
2021/04/01 02:18:42;;;;;;;1.1;0.9;;;;;;;7.46;69.08301;942.3539;;;;
2021/04/01 02:21:14;;;;;;;2.4;1.1;;;;;;;7.42;69.14648;942.3409;;;;
2021/04/01 02:23:41;;;;;;;3;1.5;;;;;;;7.4;69.52734;942.325;;;;
2021/04/01 02:26:05;;;;;;;1.5;0.9;;;;;;;7.35;69.64355;942.3078;;;;
2021/04/01 02:28:35;;;;;;;5.1;1.5;;;;;;;7.47;68.92773;942.3638;;;;
2021/04/01 02:31:00;;;;;;;1.2;0.8;;;;;;;7.55;68.48535;942.323;;;;
2021/04/01 02:33:31;;;;;;;1;0.9;;;;;;;7.48;68.64551;942.3055;;;;
2021/04/01 02:35:56;;;;;;;1.4;0.9;;;;;;;7.38;68.93359;942.3085;;;;
2021/04/01 02:38:23;;;;;;;6.7;1.4;;;;;;;7.44;68.77441;942.2059;;;;
2021/04/01 02:40:48;;;;;;;5.4;1.5;;;;;;;7.46;68.8125;942.3398;;;;
2021/04/01 02:43:21;;;;;;;2.5;0.9;;;;;;;7.44;68.86621;942.313;;;;
2021/04/01 02:45:41;;;;;;;1.8;1;;;;;;;7.39;68.92383;942.2953;;;;
2021/04/01 02:48:08;;;;;;;2.6;1.4;;;;;;;7.46;68.66504;942.2343;;;;
2021/04/01 02:50:33;;;;;;;2;1.1;;;;;;;7.35;69.17871;942.2239;;;;
2021/04/01 02:52:59;;;;;;;1.3;1.1;;;;;;;7.16;69.60352;942.1914;;;;
2021/04/01 02:55:24;;;;;;;1.5;0.9;;;;;;;7.07;70.02832;942.2029;;;;
2021/04/01 02:57:50;;;;;;;1.5;0.9;;;;;;;7.16;69.36328;942.2023;;;;
2021/04/01 03:00:17;;;;;;;1.5;0.9;;;;;;;7.17;69.24219;942.2321;;;;
2021/04/01 03:02:44;;;;;;;1.5;1;;;;;;;6.88;70.6543;942.2477;;;;
2021/04/01 03:05:07;;;;;;;4.9;1.3;;;;;;;6.82;71.17773;942.1527;;;;
2021/04/01 03:07:31;;;;;;;1.4;1.2;;;;;;;6.77;71.30469;942.2095;;;;
2021/04/01 03:09:57;;;;;;;3.4;1.6;;;;;;;6.84;71.04492;942.2355;;;;
2021/04/01 03:12:27;;;;;;;1.6;1;;;;;;;6.91;70.47949;942.2161;;;;
2021/04/01 03:14:58;;;;;;;1;0.8;;;;;;;6.89;70.36328;942.1816;;;;
2021/04/01 03:17:27;;;;;;;4.7;1.2;;;;;;;6.87;70.5625;942.1975;;;;
2021/04/01 03:19:54;;;;;;;1.5;1.1;;;;;;;6.94;70.00781;942.1917;;;;
2021/04/01 03:22:27;;;;;;;1.7;1.1;;;;;;;6.99;69.66602;942.1464;;;;
2021/04/01 03:24:58;;;;;;;2.9;2;;;;;;;7.01;69.44238;942.1545;;;;
2021/04/01 03:27:24;;;;;;;1;0.9;;;;;;;6.83;69.79785;942.1997;;;;
2021/04/01 03:30:04;;;;;;;1.2;0.9;;;;;;;6.69;70.21582;942.135;;;;
2021/04/01 03:32:21;;;;;;;1.4;0.9;;;;;;;6.7;69.84473;942.1592;;;;
2021/04/01 03:34:46;;;;;;;2.9;1.6;;;;;;;6.6;70.50781;942.1819;;;;
2021/04/01 03:37:17;;;;;;;3;1.2;;;;;;;6.63;70.30859;942.1609;;;;
2021/04/01 03:39:42;;;;;;;2.5;1.1;;;;;;;6.65;69.72461;942.1434;;;;
2021/04/01 03:42:08;;;;;;;0.9;0.7;;;;;;;6.71;69.24707;942.142;;;;
2021/04/01 03:44:36;;;;;;;1.6;0.9;;;;;;;6.74;69.31934;942.1783;;;;
2021/04/01 03:47:05;;;;;;;1.1;0.8;;;;;;;6.8;68.77344;942.1564;;;;
2021/04/01 03:49:30;;;;;;;1.8;0.9;;;;;;;6.71;68.8623;942.0471;;;;
2021/04/01 03:51:59;;;;;;;2.9;1.2;;;;;;;6.62;69.51563;942.1202;;;;
2021/04/01 03:54:24;;;;;;;2.2;0.9;;;;;;;6.69;69.50391;942.0687;;;;
2021/04/01 03:56:50;;;;;;;2.8;1.3;;;;;;;6.64;69.64258;942.0979;;;;
2021/04/01 03:59:16;;;;;;;9.2;1.5;;;;;;;6.73;69.31738;942.0854;;;;
2021/04/01 04:02:39;;;;;;;1.5;0.9;;;;;;;6.77;68.9502;942.0906;;;;
2021/04/01 04:05:04;;;;;;;0.9;0.9;;;;;;;6.71;68.97559;942.101;;;;
2021/04/01 04:07:51;;;;;;;1.6;1.2;;;;;;;6.85;68.41016;942.0823;;;;
2021/04/01 04:10:01;;;;;;;2.1;1;;;;;;;6.86;68.34375;942.0368;;;;
2021/04/01 04:12:25;;;;;;;1;0.8;;;;;;;6.85;68.35156;942.0497;;;;
2021/04/01 04:14:43;;;;;;;5.1;1.1;;;;;;;6.58;69.10059;941.9706;;;;
2021/04/01 04:17:09;;;;;;;2.8;1.1;;;;;;;6.52;69.61035;941.98;;;;
2021/04/01 04:19:34;;;;;;;2.2;1.3;;;;;;;6.6;69.12598;942.0402;;;;
2021/04/01 04:22:02;;;;;;;2.3;1.5;;;;;;;6.57;69.34766;942.0425;;;;
2021/04/01 04:24:27;;;;;;;1.9;1.1;;;;;;;6.48;69.54785;941.9986;;;;
2021/04/01 04:26:55;;;;;;;3.9;1.1;;;;;;;6.43;69.99219;942.0491;;;;
2021/04/01 04:29:19;;;;;;;3;1.5;;;;;;;6.32;70.4248;941.9258;;;;
2021/04/01 04:31:44;;;;;;;2;1.3;;;;;;;6.32;68.91113;942.0178;;;;
2021/04/01 04:34:09;;;;;;;4;1.3;;;;;;;6.48;68.90332;942.0658;;;;
2021/04/01 04:36:35;;;;;;;3.9;1.4;;;;;;;6.43;68.8623;942.0389;;;;
2021/04/01 04:39:00;;;;;;;2.3;1.3;;;;;;;6.56;68.11328;942.0081;;;;
2021/04/01 04:41:28;;;;;;;3.5;1.4;;;;;;;6.67;66.82813;942.0306;;;;
2021/04/01 04:43:53;;;;;;;3.1;1;;;;;;;6.8;67.52832;942.0298;;;;
2021/04/01 04:46:18;;;;;;;3.3;1.2;;;;;;;6.79;67.36816;942.0611;;;;
2021/04/01 04:48:43;;;;;;;11.3;3.4;;;;;;;6.56;68.58887;942.1356;;;;
2021/04/01 04:51:10;;;;;;;9.2;3.7;;;;;;;6.54;68.18945;942.0884;;;;
2021/04/01 04:53:35;;;;;;;8.4;3.3;;;;;;;6.56;68.74707;942.0642;;;;
2021/04/01 04:56:08;;;;;;;15.4;4.8;;;;;;;6.47;69.03809;942.0806;;;;
2021/04/01 04:58:32;;;;;;;8.9;4.1;;;;;;;6.4;69.39941;942.1666;;;;
2021/04/01 05:04:37;;;;;;;8.1;3.2;;;;;;;6.45;69.40625;942.1842;;;;
2021/04/01 05:05:42;;;;;;;9.1;3;;;;;;;6.64;68.57715;942.0772;;;;
2021/04/01 05:08:11;;;;;;;12.5;3.9;;;;;;;6.76;67.95215;942.1606;;;;
2021/04/01 05:10:36;;;;;;;10.1;4.1;;;;;;;6.85;67.49121;942.1623;;;;
2021/04/01 05:13:09;;;;;;;12.3;4.9;;;;;;;6.96;67.24902;942.1219;;;;
2021/04/01 05:15:35;;;;;;;10;6;;;;;;;6.98;67.04883;942.1867;;;;
2021/04/01 05:18:13;;;;;;;13.7;5.5;;;;;;;6.91;67.32031;942.1894;;;;
2021/04/01 05:20:25;;;;;;;10.9;3.5;;;;;;;6.75;67.99609;942.1899;;;;
2021/04/01 05:22:53;;;;;;;5.2;2.7;;;;;;;6.59;68.52539;942.2338;;;;
2021/04/01 05:25:17;;;;;;;5.4;2.5;;;;;;;6.48;68.90332;942.2043;;;;
2021/04/01 05:27:44;;;;;;;6.9;2.2;;;;;;;6.65;67.93652;942.2146;;;;
2021/04/01 05:30:08;;;;;;;11.5;2.3;;;;;;;6.86;66.75684;942.1894;;;;
2021/04/01 05:32:37;;;;;;;13.2;3.5;;;;;;;7.21;65.27148;942.2445;;;;
2021/04/01 05:35:01;;;;;;;22.5;5.7;;;;;;;7.24;65.08398;942.2001;;;;
2021/04/01 05:37:27;;;;;;;20;6.1;;;;;;;7.5;64.64648;942.2369;;;;
2021/04/01 05:39:52;;;;;;;4.1;2.2;;;;;;;7.5;65.25781;942.2566;;;;
2021/04/01 05:42:18;;;;;;;8.5;2.1;;;;;;;7.42;65.09961;942.3148;;;;
2021/04/01 05:44:44;;;;;;;8.7;1.8;;;;;;;7.53;64.97852;942.2719;;;;
2021/04/01 05:47:11;;;;;;;3.6;1.3;;;;;;;7.59;65.13574;942.356;;;;
2021/04/01 05:49:44;;;;;;;3;1.1;;;;;;;8;63.4834;942.3521;;;;
2021/04/01 05:55:14;;;;;;;5.9;1.1;;;;;;;8.43;60.84375;942.3329;;;;
2021/04/01 05:59:29;;;;;;;1.4;1;;;;;;;9.34;57.78418;942.2637;;;;
2021/04/01 06:01:48;;;;;;;9.3;0.8;;;;;;;9.95;54.78711;942.2819;;;;
2021/04/01 06:04:11;;;;;;;11.2;1.6;;;;;;;9.88;53.92285;942.3195;;;;
2021/04/01 06:06:40;;;;;;;1.9;1.3;;;;;;;10.57;52.43359;942.2791;;;;
2021/04/01 06:08:57;;;;;;;8.7;3.1;;;;;;;11.45;50.2627;942.2683;;;;
2021/04/01 06:11:25;;;;;;;10;4.6;;;;;;;12.28;48.13574;942.2475;;;;
2021/04/01 06:13:52;;;;;;;5;3.1;;;;;;;12.46;47.16992;942.2693;;;;
2021/04/01 06:16:16;;;;;;;2.7;1.8;;;;;;;13.44;44.28711;942.2025;;;;
2021/04/01 06:18:41;;;;;;;7.1;2;;;;;;;13.67;43.82715;942.2166;;;;
2021/04/01 06:21:08;;;;;;;4.7;2.4;;;;;;;14.82;40.63477;942.1749;;;;
2021/04/01 06:23:33;;;;;;;15.4;3.3;;;;;;;15.47;38.52344;942.1833;;;;
2021/04/01 06:25:58;;;;;;;12.5;3.4;;;;;;;16.38;37.62012;942.1594;;;;
2021/04/01 06:28:23;;;;;;;4.5;2;;;;;;;15.96;36.54395;942.1115;;;;
2021/04/01 06:30:50;;;;;;;3.7;2;;;;;;;15.7;36.7998;942.1863;;;;
2021/04/01 06:33:20;;;;;;;7.2;1.7;;;;;;;15.3;38.64648;942.1722;;;;
2021/04/01 06:35:41;;;;;;;3.1;1.4;;;;;;;15.33;38.77734;942.1689;;;;
2021/04/01 06:40:29;;;;;;;7.4;3;;;;;;;16.22;36.62305;942.0697;;;;
2021/04/01 06:42:54;;;;;;;4;1.6;;;;;;;16.8;35.35156;942.0608;;;;
2021/04/01 06:45:19;;;;;;;3.6;1.4;;;;;;;17.83;34.89941;941.9973;;;;
2021/04/01 06:47:45;;;;;;;1.3;0.9;;;;;;;18.81;31.9873;942.0178;;;;
2021/04/01 06:50:14;;;;;;;2.2;0.8;;;;;;;19.34;31.6416;942.032;;;;
2021/04/01 06:52:41;;;;;;;2.1;1.3;;;;;;;20.05;30.47852;942.0293;;;;
2021/04/01 06:55:04;;;;;;;2;0.9;;;;;;;20.49;29.39941;941.9939;;;;
2021/04/01 06:57:33;;;;;;;2.9;0.9;;;;;;;19.21;30.05957;941.884;;;;
2021/04/01 06:59:55;;;;;;;0.8;0.6;;;;;;;18.45;31.30957;941.9656;;;;
2021/04/01 07:02:21;;;;;;;2.3;0.6;;;;;;;18.53;31.90918;942.0198;;;;
2021/04/01 07:04:42;;;;;;;0.9;0.6;;;;;;;19.42;31.15723;941.9604;;;;
2021/04/01 07:07:07;;;;;;;14.1;0.7;;;;;;;19.66;30.44043;941.8047;;;;
2021/04/01 07:09:43;;;;;;;0.8;0.3;;;;;;;19.49;31.39551;941.8391;;;;
2021/04/01 07:11:56;;;;;;;3.3;0.6;;;;;;;19.08;30.43457;941.8209;;;;
2021/04/01 07:14:22;;;;;;;0.9;0.4;;;;;;;18.69;30.83887;941.7792;;;;
2021/04/01 07:16:53;;;;;;;0.5;0.3;;;;;;;19.5;29.4502;941.8323;;;;
2021/04/01 07:19:30;;;;;;;1.3;0.6;;;;;;;19.38;29.79199;941.8552;;;;
2021/04/01 07:32:01;;;;;;;0.4;0.4;;;;;;;20.56;27.0332;941.7753;;;;
2021/04/01 07:46:18;;;;;;;3.3;0.7;;;;;;;22.23;26.88867;941.6203;;;;
2021/04/01 07:48:20;;;;;;;0.9;0.5;;;;;;;23.06;25.7168;941.5418;;;;
2021/04/01 07:50:44;;;;;;;1.8;1;;;;;;;22.88;25.28418;941.5435;;;;
2021/04/01 07:53:11;;;;;;;1.8;0.9;;;;;;;22.39;24.91504;941.5394;;;;
2021/04/01 07:55:38;;;;;;;4.4;0.9;;;;;;;21.52;26.17773;941.4651;;;;
2021/04/01 07:58:10;;;;;;;0.9;0.6;;;;;;;21.38;25.83105;941.5027;;;;
2021/04/01 08:00:28;;;;;;;2.5;0.6;;;;;;;22.06;26.16309;941.4702;;;;
2021/04/01 08:05:16;;;;;;;1.9;0.6;;;;;;;21.51;26.52832;941.4257;;;;
2021/04/01 08:07:42;;;;;;;1.1;0.6;;;;;;;22.58;24.84375;941.394;;;;
2021/04/01 08:10:08;;;;;;;1.3;0.7;;;;;;;23.55;23.49805;941.3719;;;;
2021/04/01 08:12:34;;;;;;;1.3;0.5;;;;;;;23.47;22.48242;941.3781;;;;
2021/04/01 08:15:02;;;;;;;0.8;0.6;;;;;;;24.15;22.74121;941.4012;;;;
2021/04/01 08:17:29;;;;;;;0.3;0.3;;;;;;;23.81;22.7002;941.3158;;;;
2021/04/01 08:19:53;;;;;;;0.3;0.3;;;;;;;25.63;22.43848;941.2488;;;;
2021/04/01 08:22:21;;;;;;;1;0.5;;;;;;;26.78;20.08008;941.2358;;;;
2021/04/01 08:24:46;;;;;;;0.9;0.4;;;;;;;29.01;18.7627;941.193;;;;
2021/04/01 08:27:14;;;;;;;0.5;0.3;;;;;;;29.95;18.30078;941.1311;;;;
2021/04/01 08:30:52;;;;;;;3.5;0.5;;;;;;;29.52;18.13965;941.1856;;;;
2021/04/01 08:32:15;;;;;;;5.5;0.8;;;;;;;30.69;16.68164;941.1506;;;;
2021/04/01 08:34:32;;;;;;;0.7;0.4;;;;;;;31.34;16.14355;941.0783;;;;
2021/04/01 08:36:48;;;;;;;1.3;0.8;;;;;;;28.6;18.04395;941.1136;;;;
2021/04/01 08:39:13;;;;;;;0.6;0.4;;;;;;;27.63;18.82324;941.0885;;;;
2021/04/01 08:42:21;;;;;;;1.4;0.6;;;;;;;28.85;19.2793;941.0754;;;;
2021/04/01 08:44:46;;;;;;;6.9;0.5;;;;;;;28.3;18.13867;940.9941;;;;
2021/04/01 08:48:20;;;;;;;1.1;0.5;;;;;;;28.08;18.2373;940.9622;;;;
2021/04/01 08:50:45;;;;;;;1.6;0.7;;;;;;;26.17;19.79199;940.9356;;;;
2021/04/01 08:53:11;;;;;;;0.7;0.4;;;;;;;27.73;18.37695;940.8795;;;;
2021/04/01 08:55:37;;;;;;;2;0.3;;;;;;;28.14;19.51074;940.9391;;;;
2021/04/01 08:58:02;;;;;;;0.9;0.4;;;;;;;29.22;17.92578;940.926;;;;
2021/04/01 09:00:27;;;;;;;0.5;0.5;;;;;;;30.46;17.4248;940.8953;;;;
2021/04/01 09:02:54;;;;;;;0.7;0.3;;;;;;;29.56;17.65332;940.8122;;;;
2021/04/01 09:05:18;;;;;;;0.3;0.3;;;;;;;29;17.0957;940.8714;;;;
2021/04/01 09:07:43;;;;;;;0.5;0.4;;;;;;;29.26;17.14063;940.8122;;;;
2021/04/01 09:10:14;;;;;;;0.9;0.5;;;;;;;28.53;17.56543;940.7881;;;;
2021/04/01 09:12:37;;;;;;;1.7;0.6;;;;;;;27.36;18.19531;940.7266;;;;
2021/04/01 09:15:03;;;;;;;0.9;0.5;;;;;;;27.57;18.80957;940.6404;;;;
2021/04/01 09:17:27;;;;;;;0.7;0.5;;;;;;;28.1;18.33203;940.6459;;;;
2021/04/01 09:19:55;;;;;;;3.4;1.3;;;;;;;28.73;17.46582;940.5945;;;;
2021/04/01 09:22:20;;;;;;;0.6;0.4;;;;;;;27.94;18.23047;940.6437;;;;
2021/04/01 09:24:45;;;;;;;0.4;0.4;;;;;;;27.51;19.69727;940.5652;;;;
2021/04/01 09:27:12;;;;;;;1;0.6;;;;;;;28.61;18.17578;940.5761;;;;
2021/04/01 09:29:37;;;;;;;0.9;0.4;;;;;;;29.07;17.39551;940.5146;;;;
2021/04/01 09:32:02;;;;;;;1.8;0.4;;;;;;;28.22;18.99121;940.5137;;;;
2021/04/01 09:34:29;;;;;;;0.8;0.5;;;;;;;28.73;18.38281;940.4819;;;;
2021/04/01 09:36:54;;;;;;;2.6;0.6;;;;;;;30.03;17.08691;940.4003;;;;
2021/04/01 09:39:27;;;;;;;0.8;0.3;;;;;;;29.24;17.08105;940.4672;;;;
2021/04/01 09:41:43;;;;;;;0.5;0.5;;;;;;;28.38;17.17871;940.4439;;;;
2021/04/01 09:44:09;;;;;;;0.6;0.6;;;;;;;28.39;18.07031;940.3758;;;;
2021/04/01 09:46:34;;;;;;;0.8;0.4;;;;;;;29.89;17.71387;940.3583;;;;
2021/04/01 09:48:59;;;;;;;1.2;0.6;;;;;;;31.57;17.03711;940.327;;;;
2021/04/01 09:51:25;;;;;;;12.2;1;;;;;;;32.44;15.61816;940.315;;;;
2021/04/01 09:53:50;;;;;;;0.6;0.5;;;;;;;32.71;14.42773;940.2351;;;;
2021/04/01 09:56:15;;;;;;;1;0.6;;;;;;;33.32;14.71094;940.2494;;;;
2021/04/01 09:58:41;;;;;;;1.1;0.5;;;;;;;33.43;14.36621;940.1509;;;;
2021/04/01 10:01:26;;;;;;;1.1;0.4;;;;;;;33.93;13.82813;940.2405;;;;
2021/04/01 10:03:31;;;;;;;0.5;0.5;;;;;;;33.48;14.40332;940.1642;;;;
2021/04/01 10:05:56;;;;;;;0.7;0.5;;;;;;;33.77;14.71387;940.1487;;;;
2021/04/01 10:08:22;;;;;;;3.1;0.6;;;;;;;34.31;14.7793;940.1021;;;;
2021/04/01 10:10:47;;;;;;;0.3;0.2;;;;;;;34.28;15.10352;940.0405;;;;
2021/04/01 10:13:12;;;;;;;1.7;0.5;;;;;;;34.36;14.76855;940.0981;;;;
2021/04/01 10:15:40;;;;;;;2.7;0.8;;;;;;;35.01;15.11523;940.0171;;;;
2021/04/01 10:18:05;;;;;;;2.3;0.9;;;;;;;34.85;15.09863;940.0092;;;;
2021/04/01 10:20:30;;;;;;;4.3;1.1;;;;;;;35.27;13.86914;939.96;;;;
2021/04/01 10:22:56;;;;;;;1.5;1;;;;;;;34.94;14.30469;939.9221;;;;
2021/04/01 10:25:23;;;;;;;1.2;0.6;;;;;;;35.52;14.12988;939.9227;;;;
2021/04/01 10:27:49;;;;;;;3.3;1.3;;;;;;;36.13;13.65332;939.9385;;;;
2021/04/01 10:30:11;;;;;;;11.5;5.1;;;;;;;36.4;14.65332;939.9086;;;;
2021/04/01 10:32:37;;;;;;;8.7;6;;;;;;;35.69;15.27051;939.866;;;;
2021/04/01 10:35:02;;;;;;;13.7;4.9;;;;;;;35.02;15.01953;939.8606;;;;
2021/04/01 10:37:27;;;;;;;7.3;3.1;;;;;;;33.17;16.06445;939.8143;;;;
2021/04/01 10:39:53;;;;;;;10;4.4;;;;;;;32.08;16.86426;939.8068;;;;
2021/04/01 10:42:18;;;;;;;6.7;3.2;;;;;;;31.35;18.0459;939.7363;;;;
2021/04/01 10:44:43;;;;;;;4.5;2.8;;;;;;;30.33;18.93652;939.7559;;;;
2021/04/01 10:47:08;;;;;;;4.2;2;;;;;;;29.88;19.38281;939.7372;;;;
2021/04/01 10:49:35;;;;;;;5.6;3.3;;;;;;;29.38;19.46875;939.7255;;;;
2021/04/01 10:52:00;;;;;;;0.8;0.8;;;;;;;28.85;19.57715;939.69;;;;
2021/04/01 10:54:25;;;;;;;4.1;1;;;;;;;28.59;20.73145;939.6351;;;;
2021/04/01 10:56:52;;;;;;;3.2;1.3;;;;;;;28.24;20.44141;939.6116;;;;
2021/04/01 10:59:16;;;;;;;1.8;1.1;;;;;;;27.92;21.51953;939.5799;;;;
2021/04/01 11:01:41;;;;;;;0.9;0.6;;;;;;;28.47;21.78418;939.5422;;;;
2021/04/01 11:04:06;;;;;;;8.1;1.2;;;;;;;29.64;19.5752;939.4391;;;;
2021/04/01 11:06:31;;;;;;;4.3;1;;;;;;;30.71;19.59766;939.4399;;;;
2021/04/01 11:08:57;;;;;;;1.5;1.1;;;;;;;31.57;18.01953;939.4739;;;;
2021/04/01 11:11:24;;;;;;;2;1.1;;;;;;;32.32;18.2168;939.3667;;;;
2021/04/01 11:13:49;;;;;;;1.2;0.6;;;;;;;31.95;17.75781;939.3616;;;;
2021/04/01 11:16:15;;;;;;;1.4;0.4;;;;;;;31.15;18.38574;939.3458;;;;
2021/04/01 11:18:41;;;;;;;2.6;0.9;;;;;;;31.04;19.34961;939.2963;;;;
2021/04/01 11:21:07;;;;;;;0.9;0.7;;;;;;;31.57;18.06641;939.2866;;;;
2021/04/01 11:23:34;;;;;;;2.3;0.9;;;;;;;30.95;19.36914;939.2355;;;;
2021/04/01 11:25:58;;;;;;;4.4;1.4;;;;;;;29.42;20.81738;939.199;;;;
2021/04/01 11:28:23;;;;;;;0.8;0.7;;;;;;;28.86;20.24414;939.2283;;;;
2021/04/01 11:30:49;;;;;;;1.6;0.9;;;;;;;28.38;22.50488;939.2235;;;;
2021/04/01 11:33:14;;;;;;;7.8;0.9;;;;;;;27.34;22.2041;939.2316;;;;
2021/04/01 11:35:41;;;;;;;2.8;1;;;;;;;26.66;23.84082;939.1828;;;;
2021/04/01 11:38:09;;;;;;;2.4;0.8;;;;;;;26.62;23.22266;939.1934;;;;
2021/04/01 11:40:31;;;;;;;1.5;1.1;;;;;;;26.56;23.46777;939.1487;;;;
2021/04/01 11:42:58;;;;;;;0.9;0.7;;;;;;;26.42;22.95117;939.1564;;;;
2021/04/01 11:45:21;;;;;;;1.5;0.9;;;;;;;26.4;23.40039;939.1786;;;;
2021/04/01 11:47:47;;;;;;;3.2;1;;;;;;;26.1;22.43848;939.1161;;;;
2021/04/01 11:50:12;;;;;;;2.6;1.2;;;;;;;25.91;22.73633;939.0508;;;;
2021/04/01 11:52:38;;;;;;;0.3;0.3;;;;;;;25.78;24.38477;939.0358;;;;
2021/04/01 11:55:03;;;;;;;1.1;0.8;;;;;;;25.63;24.30566;939.0392;;;;
2021/04/01 11:57:30;;;;;;;3.5;0.9;;;;;;;25.43;24.18848;938.9724;;;;
2021/04/01 11:59:54;;;;;;;0.9;0.5;;;;;;;25.66;24.17676;938.9556;;;;
2021/04/01 12:02:21;;;;;;;3.2;0.9;;;;;;;25.71;25.49121;938.9576;;;;
2021/04/01 12:04:51;;;;;;;1.6;0.8;;;;;;;26.73;22.84863;938.9401;;;;
2021/04/01 12:07:17;;;;;;;1.8;0.6;;;;;;;27.55;23.06934;938.9853;;;;
2021/04/01 12:09:44;;;;;;;0.3;0.3;;;;;;;27.15;21.80371;938.9412;;;;
2021/04/01 12:12:08;;;;;;;2.6;1;;;;;;;26.92;21.53125;938.843;;;;
2021/04/01 12:14:33;;;;;;;7;0.5;;;;;;;27.65;23.34668;938.8061;;;;
2021/04/01 12:16:58;;;;;;;0.7;0.3;;;;;;;27.79;23.79395;938.7339;;;;
2021/04/01 12:19:23;;;;;;;1.1;0.6;;;;;;;27.97;21.77148;938.6552;;;;
2021/04/01 12:21:49;;;;;;;2.4;0.9;;;;;;;26.62;22.60645;938.6928;;;;
2021/04/01 12:24:14;;;;;;;0.9;0.5;;;;;;;26.92;22.78809;938.6194;;;;
2021/04/01 12:26:41;;;;;;;1.7;0.8;;;;;;;26.97;23.12207;938.4924;;;;
2021/04/01 12:29:07;;;;;;;3;0.7;;;;;;;26.98;23.51367;938.4716;;;;
2021/04/01 12:31:32;;;;;;;1;0.4;;;;;;;27.46;22.96875;938.4992;;;;
2021/04/01 12:33:57;;;;;;;1.4;0.9;;;;;;;27.09;22.97461;938.4796;;;;
2021/04/01 12:36:24;;;;;;;0.8;0.6;;;;;;;26.93;23.09668;938.4475;;;;
2021/04/01 12:38:49;;;;;;;0.6;0.5;;;;;;;26.79;24.43945;938.4424;;;;
2021/04/01 12:41:14;;;;;;;1.1;0.6;;;;;;;26.58;23.41016;938.4816;;;;
2021/04/01 12:43:40;;;;;;;0.8;0.4;;;;;;;26.3;24.4248;938.4386;;;;
2021/04/01 12:46:07;;;;;;;1.2;0.4;;;;;;;25.74;23.96875;938.4063;;;;
2021/04/01 12:48:32;;;;;;;1.7;0.7;;;;;;;25.5;24.17969;938.3228;;;;
2021/04/01 12:51:00;;;;;;;1;0.5;;;;;;;25.44;24.95703;938.3759;;;;
2021/04/01 12:53:24;;;;;;;1.8;0.4;;;;;;;25.5;24.41699;938.2843;;;;
2021/04/01 12:55:51;;;;;;;0.5;0.3;;;;;;;25.54;25.00977;938.3361;;;;
2021/04/01 12:58:16;;;;;;;0.2;0.2;;;;;;;25.51;25.23242;938.3164;;;;
2021/04/01 13:00:47;;;;;;;0.7;0.5;;;;;;;25.58;24.97559;938.2633;;;;
2021/04/01 13:03:06;;;;;;;1;0.6;;;;;;;25.56;25.36523;938.2611;;;;
2021/04/01 13:05:34;;;;;;;0.3;0.3;;;;;;;25.58;26.7373;938.2101;;;;
2021/04/01 13:08:19;;;;;;;0.8;0.4;;;;;;;25.76;26.4873;938.1475;;;;
2021/04/01 13:10:40;;;;;;;0.7;0.5;;;;;;;24.87;25.04297;938.1;;;;
2021/04/01 13:12:48;;;;;;;2.5;0.8;;;;;;;24.47;26.74121;938.0695;;;;
2021/04/01 13:15:15;;;;;;;0.5;0.4;;;;;;;24.42;27.63379;938.0983;;;;
2021/04/01 13:17:41;;;;;;;1;0.7;;;;;;;24.19;29.89258;938.0012;;;;
2021/04/01 13:20:08;;;;;;;0.6;0.5;;;;;;;23.83;28.19727;937.9953;;;;
2021/04/01 13:22:44;;;;;;;0.7;0.4;;;;;;;23.75;28.2041;937.9894;;;;
2021/04/01 13:25:09;;;;;;;1.6;1;;;;;;;23.71;28.84863;937.9244;;;;
2021/04/01 13:27:24;;;;;;;4.1;0.7;;;;;;;23.58;29.62793;937.9442;;;;
2021/04/01 13:29:53;;;;;;;1.3;0.6;;;;;;;23.41;28.24121;937.8883;;;;
2021/04/01 13:32:17;;;;;;;1.2;0.6;;;;;;;23.51;27.41309;937.825;;;;
2021/04/01 13:34:45;;;;;;;0.9;0.6;;;;;;;23.47;27.31641;937.868;;;;
2021/04/01 13:37:10;;;;;;;1.2;0.3;;;;;;;23.6;28.39453;937.8466;;;;
2021/04/01 13:39:37;;;;;;;3.6;0.7;;;;;;;23.39;28.51074;937.8475;;;;
2021/04/01 13:42:08;;;;;;;5.5;0.6;;;;;;;23.4;27.85254;937.8469;;;;
2021/04/01 13:44:26;;;;;;;2.2;0.6;;;;;;;23.37;27.62793;937.8289;;;;
2021/04/01 13:46:50;;;;;;;2.6;0.8;;;;;;;23.41;27.87695;937.7996;;;;
2021/04/01 13:49:19;;;;;;;1.6;0.6;;;;;;;23.43;28.13672;937.8053;;;;
2021/04/01 13:51:40;;;;;;;1.1;0.7;;;;;;;23.44;28.19629;937.7935;;;;
2021/04/01 13:54:32;;;;;;;2.8;0.8;;;;;;;23.46;27.67969;937.81;;;;
2021/04/01 13:56:38;;;;;;;1.5;0.9;;;;;;;23.5;27.89453;937.8019;;;;
2021/04/01 14:09:05;;;;;;;0.6;0.5;;;;;;;23.75;28.33398;937.7155;;;;
2021/04/01 14:11:09;;;;;;;4.4;0.8;;;;;;;23.68;29.01172;937.6829;;;;
2021/04/01 14:13:34;;;;;;;4.5;1;;;;;;;23.58;29.0752;937.6663;;;;
2021/04/01 14:15:59;;;;;;;12.4;0.7;;;;;;;23.38;29.36719;937.7017;;;;
2021/04/01 14:18:26;;;;;;;0.8;0.6;;;;;;;23.33;30.08203;937.6841;;;;
2021/04/01 14:20:52;;;;;;;1.8;0.7;;;;;;;23.3;29.19727;937.6238;;;;
2021/04/01 14:23:19;;;;;;;0.4;0.4;;;;;;;23.48;29.50391;937.5928;;;;
2021/04/01 14:25:44;;;;;;;0.9;0.6;;;;;;;23.62;29.23145;937.606;;;;
2021/04/01 14:28:08;;;;;;;1.9;0.8;;;;;;;23.76;29.37012;937.5808;;;;
2021/04/01 14:30:33;;;;;;;1.7;0.8;;;;;;;23.9;29.89648;937.5874;;;;
2021/04/01 14:32:59;;;;;;;1;0.7;;;;;;;23.51;29.51758;937.5876;;;;
2021/04/01 14:35:24;;;;;;;0.8;0.6;;;;;;;23.18;29.87207;937.5386;;;;
2021/04/01 14:37:51;;;;;;;2.6;0.8;;;;;;;23.14;30.60938;937.5915;;;;
2021/04/01 14:40:15;;;;;;;0.7;0.5;;;;;;;23.21;30.47363;937.6033;;;;
2021/04/01 14:42:45;;;;;;;0.7;0.5;;;;;;;23.49;29.70508;937.5488;;;;
2021/04/01 14:45:05;;;;;;;1.4;0.8;;;;;;;23.75;30.51074;937.5049;;;;
2021/04/01 14:47:31;;;;;;;11.3;1;;;;;;;23.98;29.69043;937.4942;;;;
2021/04/01 14:49:56;;;;;;;1.2;0.9;;;;;;;24.1;29.19141;937.4733;;;;
2021/04/01 14:52:23;;;;;;;1.9;0.4;;;;;;;24.26;29.0957;937.4266;;;;
2021/04/01 14:54:46;;;;;;;1.1;0.5;;;;;;;24.37;29.22168;937.4705;;;;
2021/04/01 14:57:14;;;;;;;1.2;0.9;;;;;;;24.35;27.90039;937.4;;;;
2021/04/01 14:59:42;;;;;;;3.5;0.7;;;;;;;24.35;28.32422;937.3652;;;;
2021/04/01 15:02:02;;;;;;;1.8;1;;;;;;;24.16;28.7832;937.351;;;;
2021/04/01 15:04:27;;;;;;;2.3;0.7;;;;;;;23.94;29.09863;937.2985;;;;
2021/04/01 15:06:53;;;;;;;1.4;0.8;;;;;;;23.68;30.04688;937.3186;;;;
2021/04/01 15:09:20;;;;;;;1;0.5;;;;;;;23.86;30.61133;937.2615;;;;